Time;durP1;ratioP1;P1;durP2;ratioP2;P2;SDS_P1;SDS_P2;PMS_P1;PMS_P2;Temp;Humidity;BMP_temperature;BMP_pressure;BME280_temperature;BME280_humidity;BME280_pressure;Samples;Min_cycle;Max_cycle;Signal;HPM_P1;HPM_P2
2023/06/18 00:02:11;;;;;;;1.63;1.52;;;;;;;30.96;29.41;101227.47;5054451;27;99583;-79
2023/06/18 00:04:37;;;;;;;2.15;1.70;;;;;;;30.96;29.37;101225.53;5055224;27;96663;-78
2023/06/18 00:07:04;;;;;;;2.65;1.80;;;;;;;30.96;29.59;101221.91;5054530;27;96724;-78
2023/06/18 00:09:31;;;;;;;1.88;1.77;;;;;;;30.97;29.81;101224.44;5037925;27;96729;-78
2023/06/18 00:11:57;;;;;;;2.38;1.90;;;;;;;30.96;29.44;101224.69;5037616;27;96780;-78
2023/06/18 00:14:24;;;;;;;1.70;1.45;;;;;;;30.96;29.77;101219.13;5050639;27;96744;-78
2023/06/18 00:17:08;;;;;;;1.98;1.58;;;;;;;30.95;29.60;101223.84;5041646;27;97240;-79
2023/06/18 00:19:35;;;;;;;1.65;1.55;;;;;;;30.96;29.69;101227.47;5052459;27;96905;-79
2023/06/18 00:22:02;;;;;;;2.15;1.85;;;;;;;30.96;29.42;101225.53;5036776;27;100176;-79
2023/06/18 00:24:29;;;;;;;2.35;1.90;;;;;;;30.95;29.41;101218.28;5057170;27;97140;-79
2023/06/18 00:27:13;;;;;;;2.10;1.90;;;;;;;30.95;29.76;101220.22;5057970;27;96875;-78
2023/06/18 00:29:40;;;;;;;1.92;1.80;;;;;;;30.95;29.70;101211.91;5053419;27;97635;-78
2023/06/18 00:32:24;;;;;;;1.95;1.77;;;;;;;30.94;29.69;101224.06;5052534;27;97488;-78
2023/06/18 00:34:53;;;;;;;2.00;1.50;;;;;;;30.94;29.65;101221.31;5036784;27;98536;-79
2023/06/18 00:37:20;;;;;;;2.20;1.63;;;;;;;30.94;29.51;101221.31;5058001;27;97978;-79
2023/06/18 00:40:05;;;;;;;1.60;1.50;;;;;;;30.93;29.54;101219.59;5044222;27;97423;-78
2023/06/18 00:42:52;;;;;;;2.15;1.73;;;;;;;30.93;29.45;101216.84;5044845;27;98273;-79
2023/06/18 00:45:37;;;;;;;1.75;1.60;;;;;;;30.92;29.62;101216.00;5044417;27;97964;-78
2023/06/18 00:48:04;;;;;;;1.90;1.80;;;;;;;30.92;29.51;101210.44;5055005;27;96730;-79
2023/06/18 00:50:35;;;;;;;2.10;1.88;;;;;;;30.93;29.78;101208.50;5055199;27;96829;-78
2023/06/18 00:53:02;;;;;;;2.53;1.95;;;;;;;30.93;29.76;101217.69;5053681;27;98465;-79
2023/06/18 00:55:30;;;;;;;2.22;1.92;;;;;;;30.93;29.66;101202.97;5036693;27;98390;-79
2023/06/18 00:58:02;;;;;;;1.85;1.70;;;;;;;30.93;29.58;101206.59;5050803;27;96978;-79
2023/06/18 01:00:47;;;;;;;2.28;2.08;;;;;;;30.93;29.61;101202.97;5048184;27;96677;-78
2023/06/18 01:03:25;;;;;;;2.38;1.70;;;;;;;30.92;29.66;101202.13;5056507;27;98635;-78
2023/06/18 01:05:58;;;;;;;2.08;1.88;;;;;;;30.92;29.61;101204.88;5058164;27;97848;-79
2023/06/18 01:08:25;;;;;;;2.13;1.92;;;;;;;30.91;29.59;101200.44;5061452;27;96799;-78
2023/06/18 01:11:03;;;;;;;2.38;2.03;;;;;;;30.93;29.55;101203.81;5050947;27;97794;-78
2023/06/18 01:13:32;;;;;;;2.05;1.85;;;;;;;30.92;29.56;101198.50;5055666;27;99546;-78
2023/06/18 01:16:07;;;;;;;2.13;1.83;;;;;;;30.92;29.72;101198.50;5054995;27;99460;-79
2023/06/18 01:18:45;;;;;;;1.92;1.73;;;;;;;30.93;29.86;101202.97;5051630;27;96631;-78
2023/06/18 01:21:15;;;;;;;2.88;1.77;;;;;;;30.92;29.64;101201.28;5045566;27;96927;-79
2023/06/18 01:24:03;;;;;;;2.00;1.80;;;;;;;30.92;29.75;101201.28;5050142;27;99648;-78
2023/06/18 01:26:32;;;;;;;2.00;1.80;;;;;;;30.91;29.75;101205.13;5042312;27;97671;-78
2023/06/18 01:29:00;;;;;;;2.13;1.92;;;;;;;30.91;29.57;101207.91;5048403;27;96793;-79
2023/06/18 01:31:34;;;;;;;1.80;1.60;;;;;;;30.92;29.68;101201.28;5051060;27;97006;-79
2023/06/18 01:34:04;;;;;;;1.90;1.80;;;;;;;30.91;29.82;101191.25;5055852;27;99262;-79
2023/06/18 01:36:35;;;;;;;2.00;1.80;;;;;;;30.91;29.72;101202.34;5054520;27;99736;-79
2023/06/18 01:39:12;;;;;;;2.65;1.75;;;;;;;30.91;29.70;101194.88;5055745;27;96849;-79
2023/06/18 01:41:43;;;;;;;2.00;1.80;;;;;;;30.91;29.61;101191.25;5050146;27;96814;-79
2023/06/18 01:44:18;;;;;;;2.08;1.90;;;;;;;30.91;29.84;101185.72;5050926;27;96758;-79
2023/06/18 01:46:47;;;;;;;1.80;1.70;;;;;;;30.90;29.81;101182.09;5055553;27;97713;-78
2023/06/18 01:49:18;;;;;;;2.17;1.90;;;;;;;30.90;29.57;101187.63;5056625;27;97014;-79
2023/06/18 01:51:45;;;;;;;1.70;1.60;;;;;;;30.90;29.83;101189.56;5055286;27;97556;-78
2023/06/18 01:54:12;;;;;;;2.40;2.20;;;;;;;30.90;29.95;101187.63;5055590;27;97609;-79
2023/06/18 01:56:39;;;;;;;2.15;1.88;;;;;;;30.89;29.67;101185.94;5038698;27;99860;-79
2023/06/18 01:59:05;;;;;;;1.70;1.60;;;;;;;30.90;29.79;101184.03;5052997;27;97811;-78
2023/06/18 02:01:36;;;;;;;2.00;1.80;;;;;;;30.91;29.84;101182.94;5056735;27;96712;-79
2023/06/18 02:04:03;;;;;;;1.98;1.80;;;;;;;30.90;29.51;101184.88;5056099;27;96661;-79
2023/06/18 02:06:30;;;;;;;1.85;1.75;;;;;;;30.89;29.67;101180.41;5038528;27;99030;-78
2023/06/18 02:09:00;;;;;;;2.13;1.90;;;;;;;30.89;29.44;101185.94;5056682;27;96785;-79
2023/06/18 02:11:28;;;;;;;3.78;2.00;;;;;;;30.88;29.58;101175.09;5054901;27;96898;-78
2023/06/18 02:13:56;;;;;;;2.35;2.15;;;;;;;30.86;29.90;101180.88;5053595;27;97526;-79
2023/06/18 02:16:24;;;;;;;3.05;1.80;;;;;;;30.88;29.91;101172.31;5056477;27;97518;-78
2023/06/18 02:18:52;;;;;;;2.10;1.90;;;;;;;30.87;29.79;101168.69;5038272;27;96916;-78
2023/06/18 02:21:20;;;;;;;2.80;1.80;;;;;;;30.89;29.79;101172.06;5056088;27;97095;-78
2023/06/18 02:23:46;;;;;;;2.30;2.10;;;;;;;30.88;29.73;101172.31;5054225;27;97907;-79
2023/06/18 02:26:13;;;;;;;2.17;2.00;;;;;;;30.87;29.94;101165.91;5052597;27;97352;-78
2023/06/18 02:28:40;;;;;;;2.20;2.00;;;;;;;30.87;29.72;101160.38;5054685;27;96742;-79
2023/06/18 02:31:07;;;;;;;3.30;1.88;;;;;;;30.88;29.82;101159.28;5038231;27;97123;-78
2023/06/18 02:33:37;;;;;;;2.10;1.90;;;;;;;30.87;29.78;101157.59;5053549;27;100882;-79
2023/06/18 02:36:04;;;;;;;2.00;1.80;;;;;;;30.88;29.63;101161.22;5055544;27;97299;-79
2023/06/18 02:38:34;;;;;;;2.17;2.00;;;;;;;30.87;29.75;101171.47;5036829;27;97016;-78
2023/06/18 02:41:02;;;;;;;2.38;2.15;;;;;;;30.86;29.73;101161.47;5041934;27;96971;-79
2023/06/18 02:43:31;;;;;;;2.47;2.28;;;;;;;30.86;29.90;101160.59;5053618;27;96815;-78
2023/06/18 02:45:57;;;;;;;2.05;1.90;;;;;;;30.86;29.90;101157.84;5036784;27;99695;-78
2023/06/18 02:48:24;;;;;;;2.28;2.00;;;;;;;30.86;29.90;101157.84;5054326;27;97095;-79
2023/06/18 02:50:50;;;;;;;1.98;1.77;;;;;;;30.85;29.91;101162.53;5053894;27;96692;-79
2023/06/18 02:53:17;;;;;;;2.80;2.15;;;;;;;30.86;29.71;101157.84;5035749;27;100441;-79
2023/06/18 02:55:44;;;;;;;2.10;1.90;;;;;;;30.85;29.51;101161.69;5055016;27;97880;-79
2023/06/18 02:58:27;;;;;;;1.92;1.83;;;;;;;30.87;29.83;101156.75;5053118;27;96829;-78
2023/06/18 03:00:56;;;;;;;2.88;2.38;;;;;;;30.83;29.85;101159.16;5037020;27;96875;-78
2023/06/18 03:03:23;;;;;;;2.22;2.03;;;;;;;30.84;29.90;101158.06;5035857;27;97760;-79
2023/06/18 03:05:53;;;;;;;2.58;2.03;;;;;;;30.84;29.88;101155.31;5053086;27;98985;-79
2023/06/18 03:08:20;;;;;;;2.40;2.20;;;;;;;30.84;29.79;101160.84;5042507;27;97319;-79
2023/06/18 03:10:50;;;;;;;2.28;2.08;;;;;;;30.84;29.87;101160.00;5054875;27;96686;-79
2023/06/18 03:13:17;;;;;;;2.45;2.03;;;;;;;30.84;29.92;101162.78;5056303;27;96862;-79
2023/06/18 03:15:47;;;;;;;2.33;2.10;;;;;;;30.84;29.84;101154.44;5042871;27;100470;-79
2023/06/18 03:18:15;;;;;;;2.20;2.00;;;;;;;30.84;29.88;101152.53;5055299;27;97029;-78
2023/06/18 03:20:42;;;;;;;2.42;2.22;;;;;;;30.83;30.01;101156.38;5054430;27;97025;-78
2023/06/18 03:23:09;;;;;;;2.35;2.15;;;;;;;30.84;30.00;101160.00;5047162;27;96971;-79
2023/06/18 03:25:38;;;;;;;2.22;2.03;;;;;;;30.83;29.98;101163.84;5047633;27;97451;-78
2023/06/18 03:28:07;;;;;;;2.30;2.10;;;;;;;30.82;29.73;101157.47;5054441;27;97056;-79
2023/06/18 03:30:38;;;;;;;2.75;2.10;;;;;;;30.83;29.87;101163.84;5055021;27;97252;-78
2023/06/18 03:33:04;;;;;;;2.50;2.30;;;;;;;30.82;30.01;101157.47;5053801;27;100934;-78
2023/06/18 03:35:32;;;;;;;2.58;2.30;;;;;;;30.83;29.97;101153.59;5036538;27;99095;-79
2023/06/18 03:37:59;;;;;;;2.53;2.20;;;;;;;30.82;29.76;101151.06;5054358;27;97434;-79
2023/06/18 03:40:26;;;;;;;2.80;2.25;;;;;;;30.82;30.09;101154.69;5054108;27;96716;-79
2023/06/18 03:42:54;;;;;;;2.40;2.20;;;;;;;30.81;30.14;101158.53;5053538;27;99773;-79
2023/06/18 03:45:22;;;;;;;2.40;2.20;;;;;;;30.81;30.46;101160.47;5035079;27;97619;-79
2023/06/18 03:47:50;;;;;;;2.15;1.95;;;;;;;30.82;29.85;101163.00;5037890;27;96877;-79
2023/06/18 03:50:19;;;;;;;2.38;2.17;;;;;;;30.82;30.23;101164.94;5037318;27;97058;-78
2023/06/18 03:52:47;;;;;;;2.33;2.13;;;;;;;30.82;29.89;101165.78;5053529;27;99558;-79
2023/06/18 03:55:15;;;;;;;2.40;2.20;;;;;;;30.81;29.91;101164.09;5051983;27;98805;-79
2023/06/18 03:57:42;;;;;;;2.15;1.95;;;;;;;30.80;30.06;101165.16;5037587;27;97243;-79
2023/06/18 04:00:10;;;;;;;2.00;1.90;;;;;;;30.81;30.10;101166.00;5053169;27;96762;-79
2023/06/18 04:02:42;;;;;;;2.65;2.00;;;;;;;30.81;30.10;101160.47;5055137;27;100151;-79
2023/06/18 04:05:15;;;;;;;2.40;2.20;;;;;;;30.81;29.96;101168.78;5040966;27;96926;-79
2023/06/18 04:07:41;;;;;;;2.90;2.42;;;;;;;30.80;29.90;101167.09;5056735;27;96721;-79
2023/06/18 04:10:08;;;;;;;2.50;2.30;;;;;;;30.80;29.93;101175.41;5057187;27;96682;-78
2023/06/18 04:12:35;;;;;;;2.28;2.10;;;;;;;30.80;30.07;101176.25;5057167;27;100292;-79
2023/06/18 04:15:02;;;;;;;2.45;2.25;;;;;;;30.80;30.06;101170.72;5057413;27;98199;-79
2023/06/18 04:17:38;;;;;;;2.35;2.15;;;;;;;30.82;30.30;101176.88;5037941;27;97283;-79
2023/06/18 04:20:06;;;;;;;2.47;2.10;;;;;;;30.81;29.67;101179.88;5039913;27;97321;-79
2023/06/18 04:22:32;;;;;;;2.70;2.50;;;;;;;30.80;30.18;101179.03;5039419;27;100562;-79
2023/06/18 04:24:59;;;;;;;2.45;2.05;;;;;;;30.80;30.18;101178.19;5055369;27;97022;-79
2023/06/18 04:27:26;;;;;;;2.33;1.90;;;;;;;30.80;30.12;101180.97;5056184;27;97147;-79
2023/06/18 04:29:53;;;;;;;2.40;2.20;;;;;;;30.79;29.86;101185.66;5058523;27;97126;-78
2023/06/18 04:32:20;;;;;;;2.83;2.63;;;;;;;30.80;29.93;101183.72;5053714;27;99503;-78
2023/06/18 04:34:48;;;;;;;2.90;2.60;;;;;;;30.80;30.14;101181.81;5042066;27;99014;-79
2023/06/18 04:37:14;;;;;;;2.33;2.13;;;;;;;30.80;29.98;101184.59;5052143;27;97356;-78
2023/06/18 04:39:42;;;;;;;2.75;2.17;;;;;;;30.79;29.98;101195.91;5056206;27;96705;-78
2023/06/18 04:42:08;;;;;;;2.50;2.30;;;;;;;30.80;29.97;101189.28;5055357;27;97659;-79
2023/06/18 04:44:35;;;;;;;4.03;2.53;;;;;;;30.80;29.99;101189.28;5039004;27;99691;-78
2023/06/18 04:47:03;;;;;;;2.38;2.17;;;;;;;30.79;29.91;101191.22;5056366;27;97138;-79
2023/06/18 04:49:30;;;;;;;2.30;2.10;;;;;;;30.80;30.01;101187.34;5056583;27;97232;-78
2023/06/18 04:51:57;;;;;;;2.15;1.95;;;;;;;30.79;30.30;101185.66;5055717;27;98911;-79
2023/06/18 04:54:24;;;;;;;2.15;1.95;;;;;;;30.78;30.10;101189.50;5055281;27;96730;-78
2023/06/18 04:56:50;;;;;;;2.30;1.92;;;;;;;30.80;30.12;101187.34;5055674;27;96707;-79
2023/06/18 04:59:19;;;;;;;2.65;2.40;;;;;;;30.79;30.15;101180.13;5056583;27;97001;-79
2023/06/18 05:01:49;;;;;;;2.53;2.33;;;;;;;30.79;30.24;101185.66;5045991;27;97586;-79
2023/06/18 05:04:15;;;;;;;3.17;2.22;;;;;;;30.79;30.22;101184.81;5038880;27;99412;-79
2023/06/18 05:06:42;;;;;;;2.53;2.10;;;;;;;30.79;30.22;101185.66;5054798;27;96674;-78
2023/06/18 05:09:09;;;;;;;2.53;2.33;;;;;;;30.80;30.01;101186.50;5055796;27;96937;-79
2023/06/18 05:11:37;;;;;;;2.60;2.22;;;;;;;30.79;30.16;101182.88;5046292;27;99634;-79
2023/06/18 05:14:05;;;;;;;2.45;2.25;;;;;;;30.79;30.10;101191.22;5056312;27;96718;-79
2023/06/18 05:16:32;;;;;;;2.80;2.42;;;;;;;30.79;30.19;101184.81;5039043;27;96971;-79
2023/06/18 05:19:01;;;;;;;2.20;2.00;;;;;;;30.78;30.15;101189.50;5054874;27;96785;-78
2023/06/18 05:21:28;;;;;;;2.72;2.42;;;;;;;30.78;30.18;101183.97;5039021;27;100220;-79
2023/06/18 05:23:56;;;;;;;2.22;2.03;;;;;;;30.78;29.88;101181.19;5020381;27;98918;-79
2023/06/18 05:26:24;;;;;;;2.58;2.35;;;;;;;30.79;29.76;101184.81;5054983;27;96877;-78
2023/06/18 05:28:51;;;;;;;2.25;2.05;;;;;;;30.80;30.16;101178.19;5044497;27;97149;-78
2023/06/18 05:31:18;;;;;;;2.50;2.30;;;;;;;30.78;30.18;101189.50;5054887;27;96882;-79
2023/06/18 05:33:46;;;;;;;2.63;2.42;;;;;;;30.78;30.10;101180.34;5023966;27;100397;-79
2023/06/18 05:36:12;;;;;;;2.75;2.38;;;;;;;30.78;30.38;101186.75;5053805;27;97163;-79
2023/06/18 05:38:39;;;;;;;3.20;2.58;;;;;;;30.78;30.05;101189.50;5043161;27;96855;-78
2023/06/18 05:41:06;;;;;;;2.80;2.60;;;;;;;30.78;30.30;101200.59;5036740;27;100725;-78
2023/06/18 05:43:32;;;;;;;2.60;2.40;;;;;;;30.78;29.96;101195.06;5052839;27;98579;-79
2023/06/18 05:46:01;;;;;;;2.75;2.45;;;;;;;30.78;30.16;101195.06;5054544;27;96906;-79
2023/06/18 05:48:28;;;;;;;2.83;2.60;;;;;;;30.79;30.27;101198.69;5055566;27;96673;-79
2023/06/18 05:51:07;;;;;;;2.63;2.42;;;;;;;30.77;30.22;101204.47;5044807;27;96996;-78
2023/06/18 05:53:34;;;;;;;2.65;2.45;;;;;;;30.78;30.16;101208.94;5039939;27;100196;-78
2023/06/18 05:56:01;;;;;;;2.75;2.55;;;;;;;30.78;30.09;101211.69;5045905;27;97336;-79
2023/06/18 05:58:27;;;;;;;2.40;2.20;;;;;;;30.79;29.99;101204.22;5040332;27;97250;-78
2023/06/18 06:00:54;;;;;;;2.75;2.47;;;;;;;30.78;30.33;101202.53;5058658;27;100249;-78
2023/06/18 06:03:21;;;;;;;3.40;2.58;;;;;;;30.79;30.05;101202.31;5031056;27;98795;-77
2023/06/18 06:05:47;;;;;;;2.83;2.63;;;;;;;30.79;30.13;101198.69;5018652;28;96785;-78
2023/06/18 06:08:14;;;;;;;4.60;2.63;;;;;;;30.79;30.31;101205.06;5040590;27;97386;-78
2023/06/18 06:10:45;;;;;;;2.60;2.40;;;;;;;30.79;30.13;101202.31;5053661;27;100401;-78
2023/06/18 06:13:12;;;;;;;3.05;2.70;;;;;;;30.78;30.21;101206.16;5037124;27;98476;-78
2023/06/18 06:15:41;;;;;;;2.45;2.25;;;;;;;30.79;30.21;101207.00;5033953;27;97078;-78
2023/06/18 06:18:07;;;;;;;2.67;2.47;;;;;;;30.79;30.10;101212.53;5053249;27;96815;-78
2023/06/18 06:20:34;;;;;;;2.83;2.60;;;;;;;30.79;30.38;101207.00;5024565;27;100584;-78
2023/06/18 06:23:00;;;;;;;2.90;2.70;;;;;;;30.79;29.88;101207.84;5048135;27;99481;-78
2023/06/18 06:25:28;;;;;;;2.78;2.50;;;;;;;30.79;29.85;101207.84;5052206;27;96934;-78
2023/06/18 06:27:57;;;;;;;3.97;2.75;;;;;;;30.79;30.43;101199.53;5035355;27;96858;-78
2023/06/18 06:30:24;;;;;;;3.38;2.67;;;;;;;30.80;30.20;101200.38;5034975;27;99509;-78
2023/06/18 06:32:57;;;;;;;3.20;2.80;;;;;;;30.79;30.27;101196.75;5042376;27;100081;-78
2023/06/18 06:35:24;;;;;;;3.30;3.00;;;;;;;30.79;30.35;101202.31;5040945;27;97004;-78
2023/06/18 06:37:51;;;;;;;3.00;2.70;;;;;;;30.80;30.43;101200.38;5035306;27;97648;-78
2023/06/18 06:40:18;;;;;;;3.20;2.90;;;;;;;30.80;30.36;101201.22;5034687;27;100960;-78
2023/06/18 06:42:45;;;;;;;3.47;2.70;;;;;;;30.80;30.23;101206.75;5036455;27;96801;-78
2023/06/18 06:45:34;;;;;;;3.30;3.00;;;;;;;30.78;30.47;101200.59;5040119;27;97651;-77
2023/06/18 06:48:25;;;;;;;2.80;2.60;;;;;;;30.78;30.30;101203.38;5036783;27;96767;-77
2023/06/18 06:51:16;;;;;;;3.35;3.05;;;;;;;30.78;30.19;101208.09;5051407;27;101056;-78
2023/06/18 06:53:47;;;;;;;4.80;3.17;;;;;;;30.79;30.10;101207.00;5032042;27;98744;-78
2023/06/18 06:56:15;;;;;;;3.20;2.90;;;;;;;30.79;30.09;101213.41;5051426;27;98114;-78
2023/06/18 06:58:42;;;;;;;3.20;2.90;;;;;;;30.79;30.10;101213.41;5046208;27;97234;-78
2023/06/18 07:01:08;;;;;;;3.15;2.85;;;;;;;30.80;30.19;101212.31;5049234;27;97041;-78
2023/06/18 07:03:36;;;;;;;3.10;2.80;;;;;;;30.80;30.16;101205.91;5022636;28;98860;-78
2023/06/18 07:06:06;;;;;;;3.05;2.75;;;;;;;30.79;30.31;101216.16;5041773;27;96988;-78
2023/06/18 07:08:32;;;;;;;3.50;3.20;;;;;;;30.79;30.37;101216.16;5032913;27;97231;-78
2023/06/18 07:10:59;;;;;;;3.10;2.90;;;;;;;30.80;30.18;101217.00;5048797;27;100388;-78
2023/06/18 07:13:26;;;;;;;3.63;2.90;;;;;;;30.81;30.10;101218.69;5050287;27;97966;-78
2023/06/18 07:15:52;;;;;;;3.53;3.22;;;;;;;30.80;30.14;101214.25;5048563;27;96938;-78
2023/06/18 07:18:19;;;;;;;3.40;2.90;;;;;;;30.81;30.18;101215.94;5051370;27;97237;-78
2023/06/18 07:20:46;;;;;;;3.35;3.08;;;;;;;30.80;30.20;101220.63;5054068;27;97726;-78
2023/06/18 07:23:12;;;;;;;3.88;3.58;;;;;;;30.81;30.32;101215.94;5055547;27;97025;-78
2023/06/18 07:25:39;;;;;;;3.25;2.95;;;;;;;30.81;30.14;101221.47;5054939;27;96779;-78
2023/06/18 07:28:06;;;;;;;3.72;3.20;;;;;;;30.80;30.19;101223.41;5056594;27;98446;-78
2023/06/18 07:30:32;;;;;;;3.53;3.22;;;;;;;30.79;30.32;101238.34;5054685;27;96772;-78
2023/06/18 07:32:59;;;;;;;3.67;2.83;;;;;;;30.81;30.32;101263.06;5055785;27;97027;-79
2023/06/18 07:35:26;;;;;;;3.90;3.58;;;;;;;30.81;30.34;101250.06;5042035;27;96705;-78
2023/06/18 07:37:52;;;;;;;3.63;3.33;;;;;;;30.80;30.46;101241.97;5020356;27;96667;-78
2023/06/18 07:40:19;;;;;;;3.38;3.08;;;;;;;30.81;30.55;101240.88;5039231;27;97959;-78
2023/06/18 07:42:46;;;;;;;3.60;3.30;;;;;;;30.80;30.01;101244.75;5049161;27;99617;-79
2023/06/18 07:45:13;;;;;;;2.95;2.75;;;;;;;30.80;30.37;101248.38;5039705;27;96788;-78
2023/06/18 07:47:39;;;;;;;3.78;3.25;;;;;;;30.80;30.18;101251.13;5040086;27;97221;-79
2023/06/18 07:50:08;;;;;;;4.20;3.78;;;;;;;30.80;30.32;101240.03;5022507;27;98808;-78
2023/06/18 07:52:35;;;;;;;3.72;3.42;;;;;;;30.79;30.46;101235.56;5055151;27;96811;-78
2023/06/18 07:55:02;;;;;;;3.58;3.28;;;;;;;30.80;30.37;101240.03;5055565;27;97863;-78
2023/06/18 07:57:28;;;;;;;3.63;3.30;;;;;;;30.80;30.15;101245.59;5053738;27;97152;-78
2023/06/18 07:59:55;;;;;;;3.63;3.33;;;;;;;30.80;30.18;101245.59;5053682;27;99317;-78
2023/06/18 08:02:21;;;;;;;4.30;3.33;;;;;;;30.80;30.32;101245.59;5052145;27;97995;-78
2023/06/18 08:04:48;;;;;;;4.40;4.00;;;;;;;30.79;30.33;101243.91;5059255;27;96389;-78
2023/06/18 08:07:14;;;;;;;3.90;3.50;;;;;;;30.80;30.40;101242.81;5059494;27;96575;-79
2023/06/18 08:09:41;;;;;;;3.45;3.15;;;;;;;30.79;30.59;101240.28;5057899;27;98012;-78
2023/06/18 08:12:08;;;;;;;3.65;3.35;;;;;;;30.80;30.31;101242.81;5058516;27;96836;-78
2023/06/18 08:14:34;;;;;;;3.72;3.42;;;;;;;30.80;30.38;101231.72;5058771;27;97251;-78
2023/06/18 08:17:01;;;;;;;3.90;3.58;;;;;;;30.80;30.35;101230.88;5057874;27;97073;-79
2023/06/18 08:19:30;;;;;;;3.63;3.30;;;;;;;30.79;30.29;101230.03;5055936;27;97556;-79
2023/06/18 08:21:57;;;;;;;3.47;3.17;;;;;;;30.80;30.49;101239.19;5055861;27;96812;-79
2023/06/18 08:24:23;;;;;;;3.47;3.17;;;;;;;30.80;30.31;101233.66;5054247;27;96709;-78
2023/06/18 08:26:50;;;;;;;3.45;3.15;;;;;;;30.80;30.30;101239.19;5055156;27;96586;-78
2023/06/18 08:29:18;;;;;;;4.28;3.42;;;;;;;30.79;30.25;101227.25;5053036;27;99470;-79
2023/06/18 08:31:45;;;;;;;4.22;3.83;;;;;;;30.79;30.47;101224.47;5051832;27;98515;-78
2023/06/18 08:34:11;;;;;;;3.47;3.20;;;;;;;30.79;30.57;101221.72;5047562;27;97027;-78
2023/06/18 08:36:38;;;;;;;4.32;3.75;;;;;;;30.80;30.24;101219.78;5047720;27;96816;-78
2023/06/18 08:39:05;;;;;;;4.32;3.92;;;;;;;30.80;30.36;101214.25;5044572;27;96884;-78
2023/06/18 08:41:32;;;;;;;3.50;3.20;;;;;;;30.80;30.27;101217.84;5052711;27;98963;-78
2023/06/18 08:44:00;;;;;;;3.33;3.03;;;;;;;30.79;30.62;101210.63;5045175;27;97350;-78
2023/06/18 08:46:29;;;;;;;4.22;3.83;;;;;;;30.80;30.45;101215.09;5046195;27;97020;-78
2023/06/18 08:48:58;;;;;;;3.38;3.08;;;;;;;30.80;30.58;101215.09;5045388;27;96878;-78
2023/06/18 08:51:26;;;;;;;3.75;3.33;;;;;;;30.80;30.29;101209.53;5052457;27;98437;-77
2023/06/18 08:54:07;;;;;;;3.53;3.22;;;;;;;30.81;30.30;101214.00;5038244;27;96814;-79
2023/06/18 08:56:42;;;;;;;3.95;3.63;;;;;;;30.80;30.55;101211.47;5041966;27;98456;-79
2023/06/18 08:59:10;;;;;;;4.18;3.78;;;;;;;30.79;30.50;101216.16;5037728;27;97166;-78
2023/06/18 09:01:37;;;;;;;4.00;3.60;;;;;;;30.80;30.37;101211.47;5053228;27;97371;-78
2023/06/18 09:04:06;;;;;;;3.97;3.58;;;;;;;30.80;30.52;101214.25;5056136;27;96746;-78
2023/06/18 09:06:32;;;;;;;3.08;2.88;;;;;;;30.80;30.58;101214.25;5054482;27;97004;-78
2023/06/18 09:09:00;;;;;;;3.42;3.13;;;;;;;30.80;30.41;101209.53;5054323;27;97971;-78
2023/06/18 09:11:27;;;;;;;3.53;3.22;;;;;;;30.80;30.32;101215.09;5037716;27;97868;-79
2023/06/18 09:14:00;;;;;;;4.23;3.60;;;;;;;30.81;30.37;101215.94;5056687;27;97051;-78
2023/06/18 09:16:27;;;;;;;4.15;3.25;;;;;;;30.79;30.50;101210.63;5024260;27;97250;-78
2023/06/18 09:18:54;;;;;;;3.30;3.00;;;;;;;30.80;30.31;101212.31;5042449;27;97499;-78
2023/06/18 09:21:37;;;;;;;3.83;3.53;;;;;;;30.82;30.35;101212.94;5066322;27;97194;-78
2023/06/18 09:24:06;;;;;;;3.40;3.10;;;;;;;30.80;30.59;101212.31;5038084;27;98571;-78
2023/06/18 09:26:34;;;;;;;4.07;3.63;;;;;;;30.79;30.41;101210.63;5036414;27;96733;-78
2023/06/18 09:29:05;;;;;;;3.42;3.13;;;;;;;30.81;30.40;101207.63;5036817;27;97990;-78
2023/06/18 09:31:34;;;;;;;4.07;3.45;;;;;;;30.81;30.27;101215.94;5037254;27;97002;-78
2023/06/18 09:34:15;;;;;;;3.45;3.15;;;;;;;30.80;30.49;101209.53;5037843;27;96826;-78
2023/06/18 09:36:43;;;;;;;3.35;3.05;;;;;;;30.80;30.59;101214.25;5055360;27;96877;-78
2023/06/18 09:39:22;;;;;;;3.63;3.28;;;;;;;30.80;30.53;101212.31;5053256;27;97703;-78
2023/06/18 09:41:51;;;;;;;3.45;2.97;;;;;;;30.79;30.47;101216.16;5053771;27;97906;-78
2023/06/18 09:44:19;;;;;;;3.63;3.25;;;;;;;30.79;30.46;101218.94;5038076;27;96023;-78
2023/06/18 09:46:48;;;;;;;3.45;3.15;;;;;;;30.78;30.47;101206.16;5047829;27;96724;-78
2023/06/18 09:49:17;;;;;;;3.88;3.58;;;;;;;30.80;30.35;101212.31;5056137;27;96775;-77
2023/06/18 09:51:45;;;;;;;3.70;3.33;;;;;;;30.80;30.60;101209.53;5052761;27;99329;-78
2023/06/18 09:54:12;;;;;;;3.72;3.42;;;;;;;30.79;30.43;101207.84;5036990;27;96812;-78
2023/06/18 09:56:39;;;;;;;3.70;3.40;;;;;;;30.80;30.24;101212.31;5055498;27;96973;-78
2023/06/18 09:59:05;;;;;;;3.42;3.13;;;;;;;30.80;30.60;101203.16;5053178;27;97738;-78
2023/06/18 10:01:45;;;;;;;3.30;3.00;;;;;;;30.80;30.43;101209.53;5055116;27;98525;-78
2023/06/18 10:04:16;;;;;;;3.40;3.10;;;;;;;30.79;30.16;101213.41;5052023;27;96608;-77
2023/06/18 10:06:51;;;;;;;3.78;3.47;;;;;;;30.80;30.40;101215.09;5051840;27;96840;-78
2023/06/18 10:09:20;;;;;;;3.85;3.50;;;;;;;30.78;30.58;101206.16;5047201;27;100283;-78
2023/06/18 10:11:50;;;;;;;3.88;3.58;;;;;;;30.80;30.30;101214.25;5052796;27;97887;-78
2023/06/18 10:14:21;;;;;;;3.47;3.17;;;;;;;30.79;30.55;101207.84;5051195;27;97483;-78
2023/06/18 10:16:51;;;;;;;3.67;3.38;;;;;;;30.79;30.30;101213.41;5054747;27;97173;-78
2023/06/18 10:19:25;;;;;;;3.47;3.17;;;;;;;30.80;30.40;101214.25;5046625;27;96895;-79
2023/06/18 10:21:59;;;;;;;3.55;3.25;;;;;;;30.79;30.59;101218.94;5051503;27;99802;-78
2023/06/18 10:24:46;;;;;;;3.67;3.37;;;;;;;30.79;30.30;101207.00;5042083;27;96851;-78
2023/06/18 10:27:14;;;;;;;3.60;3.13;;;;;;;30.78;30.36;101211.69;5039161;27;96962;-78
2023/06/18 10:29:42;;;;;;;3.67;3.38;;;;;;;30.78;30.42;101214.47;5048069;27;96979;-78
2023/06/18 10:32:09;;;;;;;3.40;3.10;;;;;;;30.78;30.50;101206.16;5051430;27;97197;-78
2023/06/18 10:34:39;;;;;;;3.60;3.30;;;;;;;30.79;30.38;101209.78;5050673;27;96721;-77
2023/06/18 10:37:07;;;;;;;3.50;3.20;;;;;;;30.78;30.47;101203.38;5046711;27;96810;-78
2023/06/18 10:39:34;;;;;;;3.40;3.10;;;;;;;30.79;30.38;101205.06;5041431;27;97591;-79
2023/06/18 10:42:12;;;;;;;3.70;3.40;;;;;;;30.79;30.43;101205.06;5048758;27;99370;-77
2023/06/18 10:44:52;;;;;;;4.38;3.40;;;;;;;30.79;30.60;101199.53;5046390;27;97082;-78
2023/06/18 10:47:20;;;;;;;4.13;3.47;;;;;;;30.79;30.60;101193.13;5046689;27;96823;-78
2023/06/18 10:50:02;;;;;;;3.83;3.53;;;;;;;30.79;30.40;101196.75;5045607;27;97525;-78
2023/06/18 10:52:38;;;;;;;4.20;3.80;;;;;;;30.79;30.43;101187.59;5026896;27;99180;-78
2023/06/18 10:55:20;;;;;;;3.47;3.17;;;;;;;30.78;30.61;101180.34;5051389;27;97393;-78
2023/06/18 10:57:50;;;;;;;3.95;3.65;;;;;;;30.77;30.30;101173.97;5047103;27;97351;-79
2023/06/18 11:00:17;;;;;;;3.80;3.47;;;;;;;30.77;30.47;101179.50;5045368;27;97143;-79
2023/06/18 11:02:45;;;;;;;3.65;3.35;;;;;;;30.77;30.69;101185.03;5047407;27;97104;-79
2023/06/18 11:05:35;;;;;;;3.90;3.50;;;;;;;30.78;30.53;101183.97;5046972;27;97108;-79
2023/06/18 11:08:07;;;;;;;3.92;3.60;;;;;;;30.77;30.64;101182.28;5052545;27;97440;-79
2023/06/18 11:10:47;;;;;;;4.45;3.75;;;;;;;30.78;30.60;101177.56;5051924;27;97680;-78
2023/06/18 11:13:14;;;;;;;3.95;3.65;;;;;;;30.77;30.46;101176.72;5053002;27;98102;-79
2023/06/18 11:15:57;;;;;;;3.83;3.47;;;;;;;30.78;30.65;101172.03;5054203;27;97128;-78
2023/06/18 11:18:27;;;;;;;3.80;3.50;;;;;;;30.76;30.61;101169.50;5057812;27;96695;-78
2023/06/18 11:20:55;;;;;;;4.03;3.63;;;;;;;30.77;30.43;101164.78;5058234;27;99444;-78
2023/06/18 11:23:24;;;;;;;3.58;3.28;;;;;;;30.78;30.43;101163.72;5057530;27;96728;-78
2023/06/18 11:25:51;;;;;;;4.00;3.60;;;;;;;30.77;30.42;101160.09;5058418;27;97323;-78
2023/06/18 11:28:19;;;;;;;4.18;3.75;;;;;;;30.78;30.66;101160.94;5056602;27;96823;-79
2023/06/18 11:30:48;;;;;;;4.05;3.40;;;;;;;30.78;30.57;101156.25;5051605;27;97341;-78
2023/06/18 11:33:22;;;;;;;3.70;3.40;;;;;;;30.78;30.65;101147.06;5036960;27;97714;-79
2023/06/18 11:35:50;;;;;;;4.10;3.70;;;;;;;30.77;30.61;101150.94;5039800;27;96948;-77